createdAt,value
2022-10-22T00:02:30.425Z,50.5
2022-10-22T00:12:30.451Z,50.5
2022-10-22T00:22:30.369Z,50.5
2022-10-22T00:32:30.451Z,50.5
2022-10-22T00:42:30.574Z,50.5
2022-10-22T00:52:30.446Z,50.5
2022-10-22T01:02:30.568Z,50.5
2022-10-22T01:12:30.439Z,50.5
2022-10-22T01:22:30.555Z,50.5
2022-10-22T01:32:30.434Z,50.5
2022-10-22T01:42:30.566Z,50.5
2022-10-22T01:52:30.422Z,50.5
2022-10-22T02:02:30.549Z,50.5
2022-10-22T02:12:30.622Z,50.5
2022-10-22T02:22:30.551Z,50.5
2022-10-22T02:32:30.631Z,50.5
2022-10-22T02:42:30.540Z,50.5
2022-10-22T02:52:30.618Z,50.5
2022-10-22T03:02:30.527Z,50.5
2022-10-22T03:12:30.609Z,50.5
2022-10-22T03:22:30.533Z,50.5
2022-10-22T03:32:30.612Z,50.5
2022-10-22T03:42:30.735Z,50.5
2022-10-22T03:52:30.595Z,50.5
2022-10-22T04:02:30.732Z,50.5
2022-10-22T04:12:30.598Z,50.5
2022-10-22T04:22:30.712Z,51.5
2022-10-22T04:32:30.591Z,50.5
2022-10-22T04:42:30.717Z,50.5
2022-10-22T04:52:30.788Z,50.5
2022-10-22T05:02:30.711Z,50.5
2022-10-22T05:12:30.788Z,52
2022-10-22T05:22:30.701Z,52
2022-10-22T05:32:30.782Z,52
2022-10-22T05:42:30.702Z,52
2022-10-22T05:52:30.780Z,52
2022-10-22T06:02:30.700Z,52
2022-10-22T06:12:30.769Z,52
2022-10-22T06:22:30.893Z,52
2022-10-22T06:32:30.761Z,52
2022-10-22T06:42:30.891Z,52
2022-10-22T06:52:30.766Z,52
2022-10-22T07:02:30.887Z,52
2022-10-22T07:12:30.747Z,52
2022-10-22T07:22:30.876Z,52
2022-10-22T07:32:30.954Z,52
2022-10-22T07:42:30.873Z,52
2022-10-22T07:52:30.957Z,52
2022-10-22T08:02:30.868Z,52
2022-10-22T08:12:30.941Z,49
2022-10-22T08:22:30.874Z,47
2022-10-22T08:32:31.037Z,45
2022-10-22T08:42:30.861Z,44.5
2022-10-22T08:52:30.924Z,44.5
2022-10-22T09:02:31.060Z,44
2022-10-22T09:12:30.925Z,45
2022-10-22T09:22:31.079Z,46
2022-10-22T09:32:30.939Z,46
2022-10-22T09:42:31.089Z,46
2022-10-22T09:52:31.045Z,47.5
2022-10-22T10:02:38.447Z,48
2022-10-22T10:12:31.033Z,48
2022-10-22T10:22:31.201Z,48
2022-10-22T10:32:31.096Z,47
2022-10-22T10:42:31.159Z,46.5
2022-10-22T10:52:31.031Z,46.5
2022-10-22T11:02:31.161Z,46.5
2022-10-22T11:12:31.155Z,46.5
2022-10-22T11:22:31.157Z,45.5
2022-10-22T11:32:31.058Z,46
2022-10-22T11:42:31.161Z,47.5
2022-10-22T11:52:31.027Z,48
2022-10-22T12:02:31.172Z,48
2022-10-22T12:12:31.249Z,48
2022-10-22T12:22:31.148Z,48
2022-10-22T12:32:31.248Z,48
2022-10-22T12:42:31.147Z,48
2022-10-22T12:52:31.243Z,48
2022-10-22T13:02:31.143Z,48
2022-10-22T13:12:31.219Z,46.5
2022-10-22T13:22:31.133Z,46.5
2022-10-22T13:32:31.215Z,46.5
2022-10-22T13:42:31.329Z,45.5
2022-10-22T13:52:31.210Z,46
2022-10-22T14:02:31.334Z,46
2022-10-22T14:12:31.204Z,46
2022-10-22T14:22:31.321Z,46
2022-10-22T14:32:31.203Z,46
2022-10-22T14:42:31.312Z,46
2022-10-22T14:52:31.400Z,46
2022-10-22T15:02:31.305Z,46
2022-10-22T15:12:31.381Z,46
2022-10-22T15:22:31.302Z,46
2022-10-22T15:32:31.402Z,46
2022-10-22T15:42:31.316Z,46
2022-10-22T15:52:31.380Z,47
2022-10-22T16:02:31.301Z,48
2022-10-22T16:12:31.369Z,48
2022-10-22T16:22:31.579Z,48
2022-10-22T16:32:31.435Z,48
2022-10-22T16:42:31.498Z,48
2022-10-22T16:52:31.510Z,48
2022-10-22T17:02:31.488Z,48
2022-10-22T17:12:31.352Z,48
2022-10-22T17:22:31.476Z,48
2022-10-22T17:32:31.382Z,48
2022-10-22T17:42:31.476Z,49.5
2022-10-22T17:52:31.542Z,50
2022-10-22T18:02:31.469Z,50
2022-10-22T18:12:31.551Z,50
2022-10-22T18:22:31.471Z,50
2022-10-22T18:32:31.562Z,50
2022-10-22T18:42:32.770Z,50
2022-10-22T18:52:31.529Z,50
2022-10-22T19:02:31.653Z,50
2022-10-22T19:12:31.533Z,50
2022-10-22T19:22:31.655Z,50
2022-10-22T19:32:31.555Z,50
2022-10-22T19:42:31.647Z,50
2022-10-22T19:52:31.604Z,50
2022-10-22T20:02:31.641Z,50
2022-10-22T20:12:31.511Z,50
2022-10-22T20:22:31.633Z,50
2022-10-22T20:32:31.730Z,50
2022-10-22T20:42:31.626Z,50
2022-10-22T20:52:31.705Z,50
2022-10-22T21:02:31.630Z,50
2022-10-22T21:12:31.710Z,50
2022-10-22T21:22:31.642Z,50
2022-10-22T21:32:31.732Z,50
2022-10-22T21:42:31.640Z,50
2022-10-22T21:52:31.712Z,50
2022-10-22T22:02:31.842Z,50
2022-10-22T22:12:31.720Z,50
2022-10-22T22:22:31.828Z,50
2022-10-22T22:32:31.708Z,50
2022-10-22T22:42:31.817Z,50
2022-10-22T22:52:31.689Z,50
2022-10-22T23:02:31.823Z,50
2022-10-22T23:12:31.885Z,50
2022-10-22T23:22:31.828Z,50
2022-10-22T23:32:31.918Z,50
2022-10-22T23:42:31.872Z,50
2022-10-22T23:52:31.885Z,50
